createdAt,value
2023-05-24T00:01:56.702Z,31.85
2023-05-24T00:04:25.160Z,31.95
2023-05-24T00:06:54.722Z,31.27
2023-05-24T00:09:21.879Z,24.67
2023-05-24T00:11:48.771Z,25.70
2023-05-24T00:14:16.074Z,29.15
2023-05-24T00:16:42.929Z,27.13
2023-05-24T00:19:11.275Z,35.08
2023-05-24T00:21:38.353Z,38.58
2023-05-24T00:24:05.179Z,26.48
2023-05-24T00:26:31.866Z,26.70
2023-05-24T00:28:58.836Z,32.95
2023-05-24T00:31:25.533Z,24.52
2023-05-24T00:33:52.237Z,30.27
2023-05-24T00:36:18.993Z,27.08
2023-05-24T00:38:48.059Z,32.97
2023-05-24T00:41:16.394Z,31.00
2023-05-24T00:43:46.040Z,34.45
2023-05-24T00:46:20.520Z,27.88
2023-05-24T00:48:49.471Z,25.75
2023-05-24T00:51:17.533Z,33.95
2023-05-24T00:53:46.862Z,33.03
2023-05-24T00:56:15.399Z,29.98
2023-05-24T00:58:42.375Z,31.42
2023-05-24T01:01:10.966Z,30.80
2023-05-24T01:03:37.935Z,28.90
2023-05-24T01:06:07.160Z,31.80
2023-05-24T01:08:39.933Z,39.08
2023-05-24T01:11:29.071Z,24.27
2023-05-24T01:14:21.169Z,26.95
2023-05-24T01:17:20.723Z,37.53
2023-05-24T01:19:59.800Z,39.60
2023-05-24T01:23:08.532Z,26.85
2023-05-24T01:25:58.636Z,35.83
2023-05-24T01:28:26.983Z,27.23
2023-05-24T01:30:55.465Z,35.45
2023-05-24T01:33:23.702Z,33.70
2023-05-24T01:35:50.418Z,28.08
2023-05-24T01:38:17.177Z,29.75
2023-05-24T01:40:47.047Z,23.73
2023-05-24T01:43:31.514Z,25.92
2023-05-24T01:46:22.753Z,25.48
2023-05-24T01:49:23.200Z,31.10
2023-05-24T01:51:55.236Z,35.70
2023-05-24T01:54:24.651Z,39.03
2023-05-24T01:56:54.069Z,30.75
2023-05-24T01:59:22.524Z,33.38
2023-05-24T02:01:50.073Z,37.92
2023-05-24T02:04:17.580Z,31.63
2023-05-24T02:06:44.829Z,31.67
2023-05-24T02:09:11.539Z,31.20
2023-05-24T02:11:38.360Z,26.90
2023-05-24T02:14:05.010Z,32.90
2023-05-24T02:16:31.724Z,31.48
2023-05-24T02:18:58.546Z,37.45
2023-05-24T02:21:25.801Z,35.00
2023-05-24T02:23:52.639Z,25.25
2023-05-24T02:26:19.488Z,27.05
2023-05-24T02:28:46.247Z,29.95
2023-05-24T02:31:12.907Z,33.55
2023-05-24T02:33:40.412Z,30.75
2023-05-24T02:36:07.111Z,33.53
2023-05-24T02:38:33.761Z,32.63
2023-05-24T02:41:00.564Z,28.30
2023-05-24T02:43:27.208Z,39.08
2023-05-24T02:45:53.897Z,36.58
2023-05-24T02:48:20.575Z,38.42
2023-05-24T02:50:47.382Z,29.88
2023-05-24T02:53:14.110Z,32.50
2023-05-24T02:55:43.987Z,42.17
2023-05-24T02:58:12.057Z,36.58
2023-05-24T03:00:38.783Z,34.40
2023-05-24T03:03:06.172Z,32.80
2023-05-24T03:05:33.203Z,35.45
2023-05-24T03:08:00.227Z,26.48
2023-05-24T03:10:26.944Z,28.42
2023-05-24T03:12:53.598Z,44.47
2023-05-24T03:15:20.316Z,37.45
2023-05-24T03:17:47.442Z,32.92
2023-05-24T03:20:15.782Z,33.85
2023-05-24T03:22:42.523Z,34.80
2023-05-24T03:25:09.644Z,38.72
2023-05-24T03:27:36.574Z,36.72
2023-05-24T03:30:03.793Z,33.50
2023-05-24T03:32:35.238Z,28.52
2023-05-24T03:35:02.614Z,32.03
2023-05-24T03:37:29.280Z,36.28
2023-05-24T03:39:56.150Z,40.90
2023-05-24T03:42:34.435Z,29.55
2023-05-24T03:45:01.515Z,35.88
2023-05-24T03:47:28.210Z,36.35
2023-05-24T03:49:54.900Z,33.58
2023-05-24T03:52:21.617Z,28.20
2023-05-24T03:54:49.188Z,25.35
2023-05-24T03:57:15.953Z,33.85
2023-05-24T03:59:43.043Z,31.02
2023-05-24T04:02:09.932Z,28.33
2023-05-24T04:04:39.414Z,36.00
2023-05-24T04:07:06.089Z,39.63
2023-05-24T04:09:32.829Z,38.33
2023-05-24T04:11:59.519Z,38.30
2023-05-24T04:14:26.184Z,44.38
2023-05-24T04:16:53.787Z,37.50
2023-05-24T04:19:20.562Z,42.90
2023-05-24T04:21:47.228Z,36.50
2023-05-24T04:24:13.924Z,36.85
2023-05-24T04:26:43.415Z,39.95
2023-05-24T04:29:10.157Z,31.90
2023-05-24T04:31:37.053Z,35.78
2023-05-24T04:34:07.513Z,36.28
2023-05-24T04:36:35.499Z,33.33
2023-05-24T04:39:04.855Z,35.70
2023-05-24T04:41:32.253Z,48.38
2023-05-24T04:44:01.793Z,42.30
2023-05-24T04:46:28.934Z,46.13
2023-05-24T04:48:55.676Z,50.33
2023-05-24T04:51:23.381Z,42.10
2023-05-24T04:53:50.148Z,43.42
2023-05-24T04:56:17.481Z,37.38
2023-05-24T04:58:44.149Z,52.65
2023-05-24T05:01:10.931Z,35.28
2023-05-24T05:03:37.727Z,37.55
2023-05-24T05:06:04.846Z,47.75
2023-05-24T05:08:31.533Z,33.75
2023-05-24T05:10:58.677Z,37.53
2023-05-24T05:13:25.380Z,35.60
2023-05-24T05:15:52.503Z,45.13
2023-05-24T05:18:19.461Z,38.03
2023-05-24T05:20:46.613Z,39.85
2023-05-24T05:23:13.576Z,36.95
2023-05-24T05:25:40.285Z,36.92
2023-05-24T05:28:06.931Z,40.20
2023-05-24T05:30:33.732Z,37.30
2023-05-24T05:33:00.473Z,40.72
2023-05-24T05:35:27.317Z,43.08
2023-05-24T05:37:53.990Z,49.45
2023-05-24T05:40:20.771Z,55.63
2023-05-24T05:42:47.542Z,40.80
2023-05-24T05:45:14.381Z,43.70
2023-05-24T05:47:41.178Z,42.80
2023-05-24T05:50:08.208Z,55.70
2023-05-24T05:52:35.867Z,47.50
2023-05-24T05:55:02.625Z,48.92
2023-05-24T05:57:29.279Z,47.22
2023-05-24T05:59:55.983Z,57.03
2023-05-24T06:02:22.860Z,56.10
2023-05-24T06:04:50.074Z,58.72
2023-05-24T06:07:16.970Z,50.33
2023-05-24T06:09:43.699Z,53.00
2023-05-24T06:12:10.560Z,63.67
2023-05-24T06:14:38.379Z,57.45
2023-05-24T06:17:06.149Z,65.10
2023-05-24T06:19:33.048Z,53.55
2023-05-24T06:21:59.905Z,56.22
2023-05-24T06:24:28.459Z,51.38
2023-05-24T06:26:55.738Z,54.63
2023-05-24T06:29:22.719Z,61.33
2023-05-24T06:31:50.221Z,50.15
2023-05-24T06:34:20.906Z,48.97
2023-05-24T06:36:48.496Z,56.65
2023-05-24T06:39:16.123Z,58.55
2023-05-24T06:41:44.307Z,46.03
2023-05-24T06:44:11.029Z,43.95
2023-05-24T06:46:37.750Z,59.20
2023-05-24T06:49:04.523Z,52.75
2023-05-24T06:51:33.609Z,47.83
2023-05-24T06:54:00.472Z,53.47
2023-05-24T06:56:27.259Z,52.97
2023-05-24T06:58:53.901Z,53.60
2023-05-24T07:01:22.205Z,44.22
2023-05-24T07:03:49.061Z,45.70
2023-05-24T07:06:16.368Z,44.58
2023-05-24T07:08:43.037Z,52.78
2023-05-24T07:11:10.051Z,45.58
2023-05-24T07:13:36.848Z,46.50
2023-05-24T07:16:03.631Z,49.67
2023-05-24T07:18:30.799Z,51.70
2023-05-24T07:20:57.478Z,48.22
2023-05-24T07:23:24.229Z,41.88
2023-05-24T07:25:51.133Z,40.33
2023-05-24T07:28:20.005Z,51.35
2023-05-24T07:30:47.006Z,47.25
2023-05-24T07:33:13.853Z,42.97
2023-05-24T07:35:41.656Z,41.97
2023-05-24T07:38:08.377Z,41.92
2023-05-24T07:40:35.320Z,44.40
2023-05-24T07:43:03.898Z,39.38
2023-05-24T07:45:31.742Z,41.05
2023-05-24T07:47:58.624Z,43.60
2023-05-24T07:50:26.338Z,45.92
2023-05-24T07:52:53.012Z,41.35
2023-05-24T07:55:19.856Z,41.97
2023-05-24T07:57:46.630Z,49.08
2023-05-24T08:00:16.499Z,34.17
2023-05-24T08:02:46.255Z,36.17
2023-05-24T08:05:13.549Z,40.35
2023-05-24T08:07:42.210Z,42.22
2023-05-24T08:10:14.055Z,39.85
2023-05-24T08:12:42.081Z,38.63
2023-05-24T08:15:09.172Z,38.92
2023-05-24T08:17:36.477Z,34.75
2023-05-24T08:20:08.457Z,32.67
2023-05-24T08:22:35.986Z,41.95
2023-05-24T08:25:03.582Z,39.05
2023-05-24T08:27:30.513Z,35.88
2023-05-24T08:29:57.418Z,41.15
2023-05-24T08:32:24.168Z,35.00
2023-05-24T08:34:51.187Z,35.75
2023-05-24T08:37:22.496Z,35.53
2023-05-24T08:39:49.484Z,35.92
2023-05-24T08:42:16.656Z,42.53
2023-05-24T08:44:56.019Z,43.63
2023-05-24T08:47:22.885Z,34.30
2023-05-24T08:49:51.859Z,39.63
2023-05-24T08:52:20.868Z,37.33
2023-05-24T08:54:49.685Z,42.17
2023-05-24T08:57:17.454Z,37.97
2023-05-24T08:59:44.603Z,36.58
2023-05-24T09:02:13.873Z,34.28
2023-05-24T09:04:44.116Z,37.88
2023-05-24T09:07:13.660Z,34.97
2023-05-24T09:09:45.153Z,39.15
2023-05-24T09:12:21.865Z,37.05
2023-05-24T09:14:56.049Z,43.05
2023-05-24T09:17:23.505Z,38.30
2023-05-24T09:19:53.009Z,49.47
2023-05-24T09:22:23.358Z,35.40
2023-05-24T09:24:50.400Z,44.05
2023-05-24T09:27:18.380Z,47.08
2023-05-24T09:29:48.706Z,37.15
2023-05-24T09:32:21.904Z,38.03
2023-05-24T09:34:48.821Z,38.28
2023-05-24T09:37:17.687Z,38.42
2023-05-24T09:39:47.997Z,42.17
2023-05-24T09:42:21.100Z,39.30
2023-05-24T09:45:07.595Z,41.92
2023-05-24T09:47:35.461Z,38.90
2023-05-24T09:50:03.632Z,49.97
2023-05-24T09:52:30.465Z,41.15
2023-05-24T09:54:57.143Z,47.25
2023-05-24T09:57:25.748Z,42.85
2023-05-24T09:59:52.938Z,36.17
2023-05-24T10:02:22.874Z,38.22
2023-05-24T10:05:00.104Z,36.33
2023-05-24T10:07:27.341Z,33.88
2023-05-24T10:09:55.147Z,44.13
2023-05-24T10:12:23.243Z,41.85
2023-05-24T10:14:51.973Z,47.15
2023-05-24T10:17:18.875Z,38.13
2023-05-24T10:19:46.182Z,37.03
2023-05-24T10:22:15.745Z,47.15
2023-05-24T10:24:47.975Z,34.35
2023-05-24T10:27:19.291Z,44.55
2023-05-24T10:29:59.237Z,40.55
2023-05-24T10:32:31.452Z,33.92
2023-05-24T10:34:59.658Z,33.65
2023-05-24T10:37:26.910Z,33.75
2023-05-24T10:39:53.784Z,37.10
2023-05-24T10:42:21.298Z,40.75
2023-05-24T10:44:48.021Z,35.63
2023-05-24T10:47:16.784Z,33.83
2023-05-24T10:49:52.324Z,31.05
2023-05-24T10:52:19.379Z,30.50
2023-05-24T10:55:05.450Z,38.67
2023-05-24T10:57:32.943Z,33.70
2023-05-24T11:00:27.132Z,37.13
2023-05-24T11:03:09.001Z,40.47
2023-05-24T11:05:57.051Z,38.05
2023-05-24T11:08:36.320Z,33.50
2023-05-24T11:11:22.452Z,36.45
2023-05-24T11:13:57.760Z,32.60
2023-05-24T11:16:38.784Z,38.08
2023-05-24T11:19:38.817Z,42.13
2023-05-24T11:22:09.090Z,39.83
2023-05-24T11:24:36.822Z,46.70
2023-05-24T11:27:04.301Z,31.83
2023-05-24T11:29:31.302Z,29.63
2023-05-24T11:32:05.422Z,28.42
2023-05-24T11:34:33.106Z,27.95
2023-05-24T11:37:01.905Z,36.88
2023-05-24T11:39:32.396Z,25.65
2023-05-24T11:42:00.235Z,35.05
2023-05-24T11:44:29.928Z,42.00
2023-05-24T11:47:05.546Z,28.20
2023-05-24T11:49:32.327Z,29.05
2023-05-24T11:51:59.609Z,26.90
2023-05-24T11:54:31.701Z,26.40
2023-05-24T11:56:58.502Z,29.25
2023-05-24T11:59:29.312Z,28.70
2023-05-24T12:02:07.843Z,28.20
2023-05-24T12:04:35.290Z,28.48
2023-05-24T12:07:03.017Z,36.90
2023-05-24T12:09:30.017Z,26.27
2023-05-24T12:11:58.683Z,28.75
2023-05-24T12:14:30.910Z,33.38
2023-05-24T12:16:58.334Z,29.98
2023-05-24T12:19:33.667Z,26.05
2023-05-24T12:22:05.807Z,25.45
2023-05-24T12:24:32.779Z,29.45
2023-05-24T12:27:01.856Z,28.55
2023-05-24T12:29:36.372Z,26.88
2023-05-24T12:34:30.740Z,30.60
2023-05-24T12:36:57.675Z,30.25
2023-05-24T12:39:31.810Z,30.27
2023-05-24T12:42:01.504Z,27.13
2023-05-24T12:44:31.310Z,28.73
2023-05-24T12:46:58.991Z,30.00
2023-05-24T12:49:26.744Z,29.52
2023-05-24T12:51:55.595Z,31.70
2023-05-24T12:54:31.634Z,27.15
2023-05-24T12:57:03.052Z,29.45
2023-05-24T12:59:29.866Z,29.70
2023-05-24T13:01:56.781Z,30.75
2023-05-24T13:04:26.027Z,27.63
2023-05-24T13:06:53.122Z,29.60
2023-05-24T13:09:21.995Z,33.92
2023-05-24T13:11:49.260Z,32.50
2023-05-24T13:14:16.726Z,30.15
2023-05-24T13:16:44.061Z,30.70
2023-05-24T13:19:11.554Z,31.70
2023-05-24T13:21:39.007Z,31.52
2023-05-24T13:24:06.514Z,31.60
2023-05-24T13:26:37.172Z,34.05
2023-05-24T13:31:37.830Z,33.05
2023-05-24T13:34:06.138Z,37.05
2023-05-24T13:36:33.433Z,33.95
2023-05-24T13:39:13.870Z,31.25
2023-05-24T13:41:42.488Z,31.58
2023-05-24T13:44:09.948Z,31.05
2023-05-24T13:46:37.629Z,31.25
2023-05-24T13:49:05.119Z,32.03
2023-05-24T13:51:32.841Z,32.55
2023-05-24T13:53:59.786Z,32.58
2023-05-24T13:56:32.376Z,31.73
2023-05-24T13:59:03.388Z,32.33
2023-05-24T14:01:30.981Z,32.70
2023-05-24T14:03:58.549Z,32.97
2023-05-24T14:06:25.300Z,31.88
2023-05-24T14:08:52.321Z,30.05
2023-05-24T14:11:19.650Z,31.17
2023-05-24T14:16:16.958Z,31.27
2023-05-24T14:18:43.821Z,30.20
2023-05-24T14:21:10.618Z,27.98
2023-05-24T14:23:37.433Z,28.80
2023-05-24T14:26:04.095Z,28.20
2023-05-24T14:28:30.809Z,32.20
2023-05-24T14:30:58.061Z,29.00
2023-05-24T14:33:24.885Z,26.60
2023-05-24T14:35:51.893Z,28.15
2023-05-24T14:38:18.671Z,34.15
2023-05-24T14:40:47.956Z,27.00
2023-05-24T14:43:14.734Z,31.42
2023-05-24T14:45:42.236Z,22.70
2023-05-24T14:48:11.262Z,34.88
2023-05-24T14:50:39.289Z,21.77
2023-05-24T14:53:11.671Z,23.15
2023-05-24T14:55:40.831Z,21.67
2023-05-24T14:58:13.986Z,25.35
2023-05-24T15:00:42.235Z,29.30
2023-05-24T15:03:09.469Z,25.77
2023-05-24T15:05:36.454Z,27.02
2023-05-24T15:08:05.326Z,30.65
2023-05-24T15:10:32.172Z,34.97
2023-05-24T15:12:59.208Z,34.88
2023-05-24T15:15:25.854Z,37.40
2023-05-24T15:17:52.610Z,37.90
2023-05-24T15:20:19.727Z,36.72
2023-05-24T15:22:46.628Z,36.45
2023-05-24T15:25:13.509Z,38.95
2023-05-24T15:27:40.166Z,40.85
2023-05-24T15:30:07.696Z,33.83
2023-05-24T15:32:34.480Z,31.92
2023-05-24T15:35:01.466Z,34.50
2023-05-24T15:37:28.184Z,34.53
2023-05-24T15:39:54.915Z,29.70
2023-05-24T15:42:23.516Z,32.97
2023-05-24T15:44:50.506Z,33.50
2023-05-24T15:47:17.835Z,40.75
2023-05-24T15:49:45.357Z,32.42
2023-05-24T15:52:12.174Z,28.65
2023-05-24T15:54:39.096Z,36.17
2023-05-24T15:57:06.263Z,37.20
2023-05-24T15:59:35.165Z,32.53
2023-05-24T16:02:01.858Z,31.27
2023-05-24T16:04:29.171Z,35.85
2023-05-24T16:06:55.891Z,41.47
2023-05-24T16:09:22.631Z,37.78
2023-05-24T16:11:49.458Z,46.28
2023-05-24T16:14:16.629Z,36.40
2023-05-24T16:16:46.205Z,35.58
2023-05-24T16:19:12.902Z,40.58
2023-05-24T16:21:39.633Z,41.65
2023-05-24T16:24:06.806Z,41.55
2023-05-24T16:26:33.576Z,31.85
2023-05-24T16:29:01.683Z,35.35
2023-05-24T16:31:29.590Z,43.22
2023-05-24T16:33:57.121Z,43.05
2023-05-24T16:36:24.308Z,29.63
2023-05-24T16:38:50.953Z,34.10
2023-05-24T16:41:18.195Z,30.13
2023-05-24T16:43:44.952Z,36.10
2023-05-24T16:46:11.714Z,44.00
2023-05-24T16:48:38.924Z,45.35
2023-05-24T16:51:05.745Z,40.65
2023-05-24T16:53:32.644Z,43.15
2023-05-24T16:55:59.402Z,37.88
2023-05-24T16:58:28.350Z,39.60
2023-05-24T17:00:55.359Z,38.80
2023-05-24T17:03:27.548Z,33.47
2023-05-24T17:05:56.522Z,34.58
2023-05-24T17:08:25.600Z,38.15
2023-05-24T17:10:55.990Z,45.50
2023-05-24T17:13:23.577Z,33.92
2023-05-24T17:15:55.115Z,39.45
2023-05-24T17:18:29.619Z,41.70
2023-05-24T17:21:01.634Z,39.42
2023-05-24T17:23:34.769Z,39.95
2023-05-24T17:26:02.571Z,35.55
2023-05-24T17:28:29.896Z,36.95
2023-05-24T17:30:58.553Z,44.80
2023-05-24T17:33:27.893Z,38.10
2023-05-24T17:36:00.762Z,40.05
2023-05-24T17:38:28.509Z,37.63
2023-05-24T17:40:59.549Z,37.90
2023-05-24T17:43:31.832Z,40.88
2023-05-24T17:46:04.122Z,33.95
2023-05-24T17:48:41.194Z,34.40
2023-05-24T17:51:09.854Z,39.50
2023-05-24T17:53:38.135Z,35.53
2023-05-24T17:56:06.565Z,40.22
2023-05-24T17:58:35.717Z,35.70
2023-05-24T18:01:05.279Z,38.38
2023-05-24T18:03:32.571Z,41.67
2023-05-24T18:05:59.776Z,39.13
2023-05-24T18:08:26.537Z,34.15
2023-05-24T18:10:53.225Z,41.67
2023-05-24T18:13:19.972Z,40.67
2023-05-24T18:15:46.761Z,37.40
2023-05-24T18:18:13.630Z,38.38
2023-05-24T18:20:40.660Z,39.28
2023-05-24T18:23:07.435Z,45.88
2023-05-24T18:25:34.529Z,41.65
2023-05-24T18:28:01.925Z,40.78
2023-05-24T18:30:28.582Z,39.38
2023-05-24T18:33:06.853Z,36.20
2023-05-24T18:35:35.098Z,35.20
2023-05-24T18:38:01.869Z,37.38
2023-05-24T18:40:28.523Z,39.17
2023-05-24T18:42:55.389Z,47.50
2023-05-24T18:45:22.647Z,39.22
2023-05-24T18:47:49.380Z,40.67
2023-05-24T18:50:16.178Z,35.05
2023-05-24T18:52:42.853Z,34.15
2023-05-24T18:55:12.351Z,50.97
2023-05-24T18:57:39.461Z,41.38
2023-05-24T19:00:07.050Z,35.75
2023-05-24T19:02:38.741Z,38.72
2023-05-24T19:05:07.156Z,40.50
2023-05-24T19:07:35.339Z,44.20
2023-05-24T19:10:02.770Z,41.35
2023-05-24T19:12:30.060Z,41.72
2023-05-24T19:14:56.895Z,39.58
2023-05-24T19:17:24.693Z,43.67
2023-05-24T19:19:51.698Z,40.95
2023-05-24T19:22:18.467Z,42.63
2023-05-24T19:24:45.284Z,49.58
2023-05-24T19:27:12.103Z,37.58
2023-05-24T19:29:39.750Z,48.15
2023-05-24T19:32:07.332Z,36.70
2023-05-24T19:34:36.926Z,52.83
2023-05-24T19:37:04.070Z,42.55
2023-05-24T19:39:30.931Z,42.55
2023-05-24T19:41:57.656Z,45.10
2023-05-24T19:44:24.700Z,48.33
2023-05-24T19:46:51.727Z,48.85
2023-05-24T19:49:18.464Z,42.80
2023-05-24T19:51:45.170Z,40.80
2023-05-24T19:54:12.731Z,42.03
2023-05-24T19:56:39.495Z,62.25
2023-05-24T19:59:06.303Z,38.80
2023-05-24T20:01:33.313Z,43.60
2023-05-24T20:04:00.071Z,33.80
2023-05-24T20:06:27.395Z,51.67
2023-05-24T20:08:57.610Z,39.97
2023-05-24T20:11:26.987Z,49.97
2023-05-24T20:13:55.712Z,51.00
2023-05-24T20:16:23.339Z,42.60
2023-05-24T20:18:50.122Z,41.10
2023-05-24T20:21:20.467Z,42.95
2023-05-24T20:23:47.113Z,45.67
2023-05-24T20:26:14.354Z,51.80
2023-05-24T20:28:40.995Z,50.25
2023-05-24T20:31:07.696Z,44.40
2023-05-24T20:33:37.911Z,44.20
2023-05-24T20:36:05.390Z,47.65
2023-05-24T20:38:32.178Z,45.15
2023-05-24T20:40:59.517Z,47.13
2023-05-24T20:43:26.365Z,45.08
2023-05-24T20:45:53.095Z,48.15
2023-05-24T20:48:20.016Z,49.00
2023-05-24T20:50:46.948Z,40.17
2023-05-24T20:53:13.598Z,40.78
2023-05-24T20:55:40.294Z,51.58
2023-05-24T20:58:06.988Z,49.40
2023-05-24T21:00:33.720Z,46.20
2023-05-24T21:03:00.420Z,45.83
2023-05-24T21:05:27.150Z,51.40
2023-05-24T21:07:53.829Z,41.13
2023-05-24T21:10:20.550Z,44.38
2023-05-24T21:12:48.322Z,51.38
2023-05-24T21:15:15.199Z,46.60
2023-05-24T21:17:41.943Z,51.35
2023-05-24T21:20:09.185Z,40.75
2023-05-24T21:22:35.937Z,50.55
2023-05-24T21:25:02.634Z,52.92
2023-05-24T21:27:29.384Z,51.20
2023-05-24T21:29:56.136Z,47.05
2023-05-24T21:32:22.810Z,54.67
2023-05-24T21:34:49.816Z,51.47
2023-05-24T21:37:17.246Z,44.17
2023-05-24T21:39:44.610Z,64.50
2023-05-24T21:42:11.410Z,56.13
2023-05-24T21:44:38.263Z,53.50
2023-05-24T21:47:05.391Z,51.33
2023-05-24T21:49:32.064Z,46.30
2023-05-24T21:51:58.729Z,58.75
2023-05-24T21:54:25.654Z,52.72
2023-05-24T21:56:52.320Z,49.13
2023-05-24T21:59:18.984Z,48.72
2023-05-24T22:01:45.847Z,50.92
2023-05-24T22:04:12.789Z,47.30
2023-05-24T22:06:41.354Z,50.53
2023-05-24T22:09:11.572Z,52.45
2023-05-24T22:11:38.324Z,56.08
2023-05-24T22:14:05.026Z,37.28
2023-05-24T22:16:31.776Z,45.97
2023-05-24T22:18:58.505Z,51.83
2023-05-24T22:21:26.015Z,48.78
2023-05-24T22:23:52.687Z,55.35
2023-05-24T22:26:19.323Z,45.58
2023-05-24T22:28:53.357Z,59.50
2023-05-24T22:31:21.350Z,60.93
2023-05-24T22:33:49.386Z,55.47
2023-05-24T22:36:16.122Z,54.13
2023-05-24T22:38:43.883Z,48.78
2023-05-24T22:41:10.904Z,58.42
2023-05-24T22:43:37.713Z,38.28
2023-05-24T22:46:07.595Z,49.03
2023-05-24T22:48:35.789Z,42.83
2023-05-24T22:51:02.527Z,42.38
2023-05-24T22:53:29.543Z,52.30
2023-05-24T22:55:56.232Z,42.22
2023-05-24T22:58:24.664Z,39.65
2023-05-24T23:00:51.766Z,49.33
2023-05-24T23:03:18.622Z,51.05
2023-05-24T23:05:45.694Z,51.47
2023-05-24T23:08:15.370Z,56.45
2023-05-24T23:10:45.453Z,55.53
2023-05-24T23:13:14.324Z,49.33
2023-05-24T23:15:41.264Z,46.97
2023-05-24T23:18:09.995Z,53.42
2023-05-24T23:20:40.097Z,51.35
2023-05-24T23:23:10.053Z,47.17
2023-05-24T23:25:37.620Z,52.38
2023-05-24T23:28:04.597Z,44.58
2023-05-24T23:30:31.322Z,45.88
2023-05-24T23:32:58.991Z,48.45
2023-05-24T23:35:25.684Z,50.10
2023-05-24T23:37:53.638Z,38.47
2023-05-24T23:40:20.840Z,51.08
2023-05-24T23:42:48.808Z,48.63
2023-05-24T23:45:15.538Z,51.15
2023-05-24T23:47:42.418Z,46.47
2023-05-24T23:50:09.736Z,53.72
2023-05-24T23:52:36.440Z,51.15
2023-05-24T23:55:03.372Z,47.95
2023-05-24T23:57:30.227Z,56.35
2023-05-24T23:59:56.964Z,63.10
